Aérodrome :
LOGIN :

S'inscrire | Disclaimer

   EN    FR    IT 

 










Légende :    VFR   VFR Marginal   IFR   IFR Intensif   IFR Très Intensif
Visi : 
Plafond : 
>= 8 km
>= 3000ft
5 à 8 km
1000 à 3000 ft
1500m à 5 km
500 à 1000 ft
800 à 1500m
200 à 500 ft
< 800m
< 200 ft
Symboles :   Orages  Brouillard  Fortes neiges  Fortes précipitations  Vent > 20 kt
SIGMETs :   Divers  Orages  Givrage  Turbulence  Onde Orograph.  Cendres Volcan.






- Altitude de l'aérodrome : 83 ft
- Code IATA : LHR


EGLL - London Heathrow

DERNIER METAR :
  • 250550Z AUTO 24010KT 9999 FEW027 05/02 Q1003 NOSIG

METARs EXPIRÉS :
  • 250520Z AUTO 24011KT 9999 NCD 05/02 Q1004 NOSIG
  • 250450Z AUTO 25011KT 9999 NCD 05/02 Q1004 NOSIG
  • 250420Z AUTO 25011KT 9999 NCD 06/02 Q1004 NOSIG
  • 250350Z AUTO 25011KT 9999 NCD 06/02 Q1004 NOSIG
  • 250320Z AUTO 24011KT 9999 SCT027 06/03 Q1004 NOSIG

TAF TAF EGLL
Valide du 25 à 06h jusqu'au 26 à 12h UTC


250455Z 2506/2612 25012KT 9999 SCT030
PROB30
TEMPO 2509/2516 26015G25KT 8000 SHRA
TEMPO 2516/2520 26015G25KT 6000 SHRA BKN014CB
PROB40
TEMPO 2516/2520 3000 +SHRAGS
PROB30
TEMPO 2520/2524 2500 SHRASN BKN008
PROB40
TEMPO 2603/2609 BKN012



MET'MAP, la Météo Aéronautique d'un coup d'oeil ! - Copyright ORBIFLY Décembre 2007 - Disclaimer

ORBIFLY MET'MAP TEAM :

Programmation & Développement : Alexandra Zaïnal
Sur une idée originale de : Baudouin d'Aumeries
Assistance à la programmation : Marc-Olivier Méhu
Soutien technique & logistique : Manuel Goepfert

Contact : metmap@orbifly.com




SOURCES & CREDITS :

   NOAA